sensor_id;sensor_type;location;lat;lon;timestamp;P1;durP1;ratioP1;P2;durP2;ratioP2
17510;SDS011;8873;48.818;9.422;2022-07-30T00:01:03;7.88;;;6.90;;
17510;SDS011;8873;48.818;9.422;2022-07-30T00:03:32;8.40;;;7.03;;
17510;SDS011;8873;48.818;9.422;2022-07-30T00:06:00;9.60;;;8.13;;
17510;SDS011;8873;48.818;9.422;2022-07-30T00:08:33;10.30;;;8.13;;
17510;SDS011;8873;48.818;9.422;2022-07-30T00:11:03;10.57;;;9.27;;
17510;SDS011;8873;48.818;9.422;2022-07-30T00:13:48;14.07;;;9.45;;
17510;SDS011;8873;48.818;9.422;2022-07-30T00:16:17;12.07;;;9.85;;
17510;SDS011;8873;48.818;9.422;2022-07-30T00:18:51;12.55;;;9.10;;
17510;SDS011;8873;48.818;9.422;2022-07-30T00:21:28;15.23;;;8.75;;
17510;SDS011;8873;48.818;9.422;2022-07-30T00:24:08;12.38;;;9.13;;
17510;SDS011;8873;48.818;9.422;2022-07-30T00:26:38;15.77;;;9.75;;
17510;SDS011;8873;48.818;9.422;2022-07-30T00:29:18;11.38;;;8.43;;
17510;SDS011;8873;48.818;9.422;2022-07-30T00:31:55;9.00;;;7.53;;
17510;SDS011;8873;48.818;9.422;2022-07-30T00:34:23;11.70;;;8.40;;
17510;SDS011;8873;48.818;9.422;2022-07-30T00:36:53;12.60;;;9.18;;
17510;SDS011;8873;48.818;9.422;2022-07-30T00:39:29;13.50;;;8.93;;
17510;SDS011;8873;48.818;9.422;2022-07-30T00:42:04;10.27;;;8.40;;
17510;SDS011;8873;48.818;9.422;2022-07-30T00:44:36;16.52;;;8.90;;
17510;SDS011;8873;48.818;9.422;2022-07-30T00:47:07;13.32;;;8.20;;
17510;SDS011;8873;48.818;9.422;2022-07-30T00:49:35;9.45;;;8.18;;
17510;SDS011;8873;48.818;9.422;2022-07-30T00:55:00;10.02;;;7.57;;
17510;SDS011;8873;48.818;9.422;2022-07-30T00:57:35;13.18;;;8.30;;
17510;SDS011;8873;48.818;9.422;2022-07-30T01:00:22;10.55;;;8.25;;
17510;SDS011;8873;48.818;9.422;2022-07-30T01:02:54;10.27;;;9.13;;
17510;SDS011;8873;48.818;9.422;2022-07-30T01:05:22;18.13;;;9.93;;
17510;SDS011;8873;48.818;9.422;2022-07-30T01:07:58;11.35;;;8.65;;
17510;SDS011;8873;48.818;9.422;2022-07-30T01:10:26;10.48;;;8.73;;
17510;SDS011;8873;48.818;9.422;2022-07-30T01:12:54;13.65;;;9.68;;
17510;SDS011;8873;48.818;9.422;2022-07-30T01:15:31;14.75;;;9.57;;
17510;SDS011;8873;48.818;9.422;2022-07-30T01:18:03;15.15;;;10.30;;
17510;SDS011;8873;48.818;9.422;2022-07-30T01:20:35;13.23;;;9.82;;
17510;SDS011;8873;48.818;9.422;2022-07-30T01:23:09;14.50;;;10.27;;
17510;SDS011;8873;48.818;9.422;2022-07-30T01:25:55;13.88;;;10.07;;
17510;SDS011;8873;48.818;9.422;2022-07-30T01:28:27;12.00;;;9.88;;
17510;SDS011;8873;48.818;9.422;2022-07-30T01:31:08;14.88;;;10.63;;
17510;SDS011;8873;48.818;9.422;2022-07-30T01:34:18;13.32;;;10.45;;
17510;SDS011;8873;48.818;9.422;2022-07-30T01:36:53;17.35;;;11.73;;
17510;SDS011;8873;48.818;9.422;2022-07-30T01:39:35;18.33;;;10.98;;
17510;SDS011;8873;48.818;9.422;2022-07-30T01:42:07;13.48;;;10.95;;
17510;SDS011;8873;48.818;9.422;2022-07-30T01:44:55;19.05;;;10.25;;
17510;SDS011;8873;48.818;9.422;2022-07-30T01:47:37;16.20;;;11.00;;
17510;SDS011;8873;48.818;9.422;2022-07-30T01:50:25;11.77;;;10.43;;
17510;SDS011;8873;48.818;9.422;2022-07-30T01:52:57;14.25;;;10.25;;
17510;SDS011;8873;48.818;9.422;2022-07-30T01:55:29;12.52;;;9.35;;
17510;SDS011;8873;48.818;9.422;2022-07-30T01:58:03;16.98;;;10.25;;
17510;SDS011;8873;48.818;9.422;2022-07-30T02:00:40;12.13;;;9.38;;
17510;SDS011;8873;48.818;9.422;2022-07-30T02:03:09;11.38;;;9.45;;
17510;SDS011;8873;48.818;9.422;2022-07-30T02:05:38;11.90;;;9.60;;
17510;SDS011;8873;48.818;9.422;2022-07-30T02:08:13;12.77;;;9.65;;
17510;SDS011;8873;48.818;9.422;2022-07-30T02:11:00;13.98;;;10.27;;
17510;SDS011;8873;48.818;9.422;2022-07-30T02:13:42;14.93;;;10.60;;
17510;SDS011;8873;48.818;9.422;2022-07-30T02:16:14;14.02;;;9.55;;
17510;SDS011;8873;48.818;9.422;2022-07-30T02:18:56;14.25;;;9.90;;
17510;SDS011;8873;48.818;9.422;2022-07-30T02:21:43;15.35;;;9.80;;
17510;SDS011;8873;48.818;9.422;2022-07-30T02:24:17;10.43;;;9.07;;
17510;SDS011;8873;48.818;9.422;2022-07-30T02:26:53;12.52;;;8.52;;
17510;SDS011;8873;48.818;9.422;2022-07-30T02:29:36;13.57;;;9.15;;
17510;SDS011;8873;48.818;9.422;2022-07-30T02:32:12;10.55;;;8.75;;
17510;SDS011;8873;48.818;9.422;2022-07-30T02:34:45;11.10;;;8.75;;
17510;SDS011;8873;48.818;9.422;2022-07-30T02:37:17;11.05;;;8.38;;
17510;SDS011;8873;48.818;9.422;2022-07-30T02:40:09;13.70;;;8.68;;
17510;SDS011;8873;48.818;9.422;2022-07-30T02:42:55;12.32;;;8.80;;
17510;SDS011;8873;48.818;9.422;2022-07-30T02:45:25;12.50;;;9.40;;
17510;SDS011;8873;48.818;9.422;2022-07-30T02:47:56;13.93;;;9.43;;
17510;SDS011;8873;48.818;9.422;2022-07-30T02:50:29;13.82;;;8.68;;
17510;SDS011;8873;48.818;9.422;2022-07-30T02:53:04;11.65;;;9.02;;
17510;SDS011;8873;48.818;9.422;2022-07-30T02:55:37;11.30;;;9.13;;
17510;SDS011;8873;48.818;9.422;2022-07-30T02:58:19;11.43;;;8.45;;
17510;SDS011;8873;48.818;9.422;2022-07-30T03:00:52;12.13;;;9.05;;
17510;SDS011;8873;48.818;9.422;2022-07-30T03:03:21;13.05;;;8.80;;
17510;SDS011;8873;48.818;9.422;2022-07-30T03:05:54;12.55;;;8.10;;
17510;SDS011;8873;48.818;9.422;2022-07-30T03:08:27;11.20;;;8.32;;
17510;SDS011;8873;48.818;9.422;2022-07-30T03:11:03;10.48;;;8.35;;
17510;SDS011;8873;48.818;9.422;2022-07-30T03:13:44;12.80;;;8.65;;
17510;SDS011;8873;48.818;9.422;2022-07-30T03:19:01;12.60;;;7.85;;
17510;SDS011;8873;48.818;9.422;2022-07-30T03:21:32;11.82;;;7.90;;
17510;SDS011;8873;48.818;9.422;2022-07-30T03:24:10;11.35;;;8.07;;
17510;SDS011;8873;48.818;9.422;2022-07-30T03:26:41;10.20;;;7.88;;
17510;SDS011;8873;48.818;9.422;2022-07-30T03:29:10;9.35;;;7.88;;
17510;SDS011;8873;48.818;9.422;2022-07-30T03:31:47;10.68;;;8.27;;
17510;SDS011;8873;48.818;9.422;2022-07-30T03:34:34;10.73;;;8.00;;
17510;SDS011;8873;48.818;9.422;2022-07-30T03:37:06;9.95;;;7.85;;
17510;SDS011;8873;48.818;9.422;2022-07-30T03:39:39;11.35;;;7.53;;
17510;SDS011;8873;48.818;9.422;2022-07-30T03:42:11;10.30;;;7.65;;
17510;SDS011;8873;48.818;9.422;2022-07-30T03:44:42;9.90;;;6.80;;
17510;SDS011;8873;48.818;9.422;2022-07-30T03:47:17;9.40;;;7.68;;
17510;SDS011;8873;48.818;9.422;2022-07-30T03:49:54;10.10;;;8.30;;
17510;SDS011;8873;48.818;9.422;2022-07-30T03:52:28;11.40;;;8.57;;
17510;SDS011;8873;48.818;9.422;2022-07-30T03:55:09;11.07;;;8.05;;
17510;SDS011;8873;48.818;9.422;2022-07-30T03:57:46;11.52;;;8.35;;
17510;SDS011;8873;48.818;9.422;2022-07-30T04:00:20;11.38;;;8.77;;
17510;SDS011;8873;48.818;9.422;2022-07-30T04:02:48;11.77;;;8.50;;
17510;SDS011;8873;48.818;9.422;2022-07-30T04:05:32;10.73;;;8.57;;
17510;SDS011;8873;48.818;9.422;2022-07-30T04:08:27;11.18;;;8.20;;
17510;SDS011;8873;48.818;9.422;2022-07-30T04:11:10;14.30;;;9.25;;
17510;SDS011;8873;48.818;9.422;2022-07-30T04:14:06;13.88;;;9.35;;
17510;SDS011;8873;48.818;9.422;2022-07-30T04:16:52;16.52;;;9.85;;
17510;SDS011;8873;48.818;9.422;2022-07-30T04:19:26;12.93;;;9.95;;
17510;SDS011;8873;48.818;9.422;2022-07-30T04:22:02;14.77;;;9.40;;
17510;SDS011;8873;48.818;9.422;2022-07-30T04:24:36;14.85;;;9.23;;
17510;SDS011;8873;48.818;9.422;2022-07-30T04:27:11;15.20;;;9.93;;
17510;SDS011;8873;48.818;9.422;2022-07-30T04:29:48;17.25;;;11.18;;
17510;SDS011;8873;48.818;9.422;2022-07-30T04:32:30;13.73;;;9.43;;
17510;SDS011;8873;48.818;9.422;2022-07-30T04:34:58;11.85;;;8.82;;
17510;SDS011;8873;48.818;9.422;2022-07-30T04:37:30;13.38;;;9.13;;
17510;SDS011;8873;48.818;9.422;2022-07-30T04:39:58;13.38;;;8.93;;
17510;SDS011;8873;48.818;9.422;2022-07-30T04:42:37;11.77;;;8.30;;
17510;SDS011;8873;48.818;9.422;2022-07-30T04:45:11;9.57;;;8.00;;
17510;SDS011;8873;48.818;9.422;2022-07-30T04:47:39;13.38;;;8.82;;
17510;SDS011;8873;48.818;9.422;2022-07-30T04:50:09;12.82;;;8.73;;
17510;SDS011;8873;48.818;9.422;2022-07-30T04:52:56;10.90;;;8.75;;
17510;SDS011;8873;48.818;9.422;2022-07-30T04:55:36;14.10;;;9.18;;
17510;SDS011;8873;48.818;9.422;2022-07-30T04:58:12;12.90;;;9.50;;
17510;SDS011;8873;48.818;9.422;2022-07-30T05:00:54;13.43;;;9.32;;
17510;SDS011;8873;48.818;9.422;2022-07-30T05:03:24;13.13;;;8.95;;
17510;SDS011;8873;48.818;9.422;2022-07-30T05:06:11;13.10;;;9.40;;
17510;SDS011;8873;48.818;9.422;2022-07-30T05:08:46;12.10;;;8.98;;
17510;SDS011;8873;48.818;9.422;2022-07-30T05:11:15;15.05;;;9.63;;
17510;SDS011;8873;48.818;9.422;2022-07-30T05:16:38;14.30;;;9.77;;
17510;SDS011;8873;48.818;9.422;2022-07-30T05:19:10;15.77;;;9.88;;
17510;SDS011;8873;48.818;9.422;2022-07-30T05:21:49;13.48;;;9.48;;
17510;SDS011;8873;48.818;9.422;2022-07-30T05:24:45;11.07;;;8.70;;
17510;SDS011;8873;48.818;9.422;2022-07-30T05:27:14;15.85;;;9.07;;
17510;SDS011;8873;48.818;9.422;2022-07-30T05:29:46;9.45;;;8.48;;
17510;SDS011;8873;48.818;9.422;2022-07-30T05:32:20;14.10;;;9.25;;
17510;SDS011;8873;48.818;9.422;2022-07-30T05:35:01;10.80;;;8.48;;
17510;SDS011;8873;48.818;9.422;2022-07-30T05:37:39;10.80;;;8.63;;
17510;SDS011;8873;48.818;9.422;2022-07-30T05:40:20;15.75;;;9.85;;
17510;SDS011;8873;48.818;9.422;2022-07-30T05:42:52;12.23;;;9.77;;
17510;SDS011;8873;48.818;9.422;2022-07-30T05:45:32;13.50;;;9.02;;
17510;SDS011;8873;48.818;9.422;2022-07-30T05:48:03;11.35;;;8.95;;
17510;SDS011;8873;48.818;9.422;2022-07-30T05:50:47;12.18;;;8.35;;
17510;SDS011;8873;48.818;9.422;2022-07-30T05:53:31;12.02;;;8.05;;
17510;SDS011;8873;48.818;9.422;2022-07-30T05:56:07;11.30;;;7.72;;
17510;SDS011;8873;48.818;9.422;2022-07-30T05:58:44;9.25;;;7.70;;
17510;SDS011;8873;48.818;9.422;2022-07-30T06:01:18;12.50;;;7.60;;
17510;SDS011;8873;48.818;9.422;2022-07-30T06:04:00;13.13;;;7.15;;
17510;SDS011;8873;48.818;9.422;2022-07-30T06:06:59;13.02;;;7.70;;
17510;SDS011;8873;48.818;9.422;2022-07-30T06:09:32;9.88;;;7.45;;
17510;SDS011;8873;48.818;9.422;2022-07-30T06:12:09;8.93;;;7.43;;
17510;SDS011;8873;48.818;9.422;2022-07-30T06:14:42;9.57;;;6.85;;
17510;SDS011;8873;48.818;9.422;2022-07-30T06:17:10;9.80;;;6.63;;
17510;SDS011;8873;48.818;9.422;2022-07-30T06:19:40;10.18;;;7.13;;
17510;SDS011;8873;48.818;9.422;2022-07-30T06:22:35;11.15;;;6.68;;
17510;SDS011;8873;48.818;9.422;2022-07-30T06:25:14;9.30;;;6.63;;
17510;SDS011;8873;48.818;9.422;2022-07-30T06:31:08;9.43;;;6.95;;
17510;SDS011;8873;48.818;9.422;2022-07-30T06:33:50;15.77;;;7.28;;
17510;SDS011;8873;48.818;9.422;2022-07-30T06:36:35;9.40;;;6.63;;
17510;SDS011;8873;48.818;9.422;2022-07-30T06:39:06;14.30;;;7.10;;
17510;SDS011;8873;48.818;9.422;2022-07-30T06:41:36;9.45;;;6.55;;
17510;SDS011;8873;48.818;9.422;2022-07-30T06:44:06;21.35;;;12.35;;
17510;SDS011;8873;48.818;9.422;2022-07-30T06:46:35;29.60;;;13.40;;
17510;SDS011;8873;48.818;9.422;2022-07-30T06:49:04;25.42;;;9.82;;
17510;SDS011;8873;48.818;9.422;2022-07-30T06:54:38;10.82;;;6.97;;
17510;SDS011;8873;48.818;9.422;2022-07-30T06:57:22;15.32;;;6.20;;
17510;SDS011;8873;48.818;9.422;2022-07-30T07:00:06;12.50;;;6.22;;
17510;SDS011;8873;48.818;9.422;2022-07-30T07:02:41;9.55;;;5.95;;
17510;SDS011;8873;48.818;9.422;2022-07-30T07:05:17;10.00;;;6.13;;
17510;SDS011;8873;48.818;9.422;2022-07-30T07:07:56;7.25;;;5.50;;
17510;SDS011;8873;48.818;9.422;2022-07-30T07:10:25;8.35;;;4.60;;
17510;SDS011;8873;48.818;9.422;2022-07-30T07:13:09;7.97;;;5.43;;
17510;SDS011;8873;48.818;9.422;2022-07-30T07:15:46;10.20;;;5.82;;
17510;SDS011;8873;48.818;9.422;2022-07-30T07:18:22;10.75;;;6.70;;
17510;SDS011;8873;48.818;9.422;2022-07-30T07:20:58;9.45;;;5.90;;
17510;SDS011;8873;48.818;9.422;2022-07-30T07:23:36;8.60;;;4.72;;
17510;SDS011;8873;48.818;9.422;2022-07-30T07:26:08;13.63;;;5.85;;
17510;SDS011;8873;48.818;9.422;2022-07-30T07:28:56;11.50;;;4.85;;
17510;SDS011;8873;48.818;9.422;2022-07-30T07:31:44;20.77;;;8.10;;
17510;SDS011;8873;48.818;9.422;2022-07-30T07:34:34;20.25;;;9.23;;
17510;SDS011;8873;48.818;9.422;2022-07-30T07:37:02;9.90;;;5.38;;
17510;SDS011;8873;48.818;9.422;2022-07-30T07:39:31;5.63;;;4.70;;
17510;SDS011;8873;48.818;9.422;2022-07-30T07:42:07;5.97;;;4.57;;
17510;SDS011;8873;48.818;9.422;2022-07-30T07:44:44;7.78;;;4.28;;
17510;SDS011;8873;48.818;9.422;2022-07-30T07:47:19;9.07;;;4.40;;
17510;SDS011;8873;48.818;9.422;2022-07-30T07:50:04;6.53;;;4.30;;
17510;SDS011;8873;48.818;9.422;2022-07-30T07:52:47;10.15;;;4.82;;
17510;SDS011;8873;48.818;9.422;2022-07-30T07:55:41;7.55;;;4.55;;
17510;SDS011;8873;48.818;9.422;2022-07-30T07:58:29;6.13;;;4.57;;
17510;SDS011;8873;48.818;9.422;2022-07-30T08:04:07;9.35;;;4.82;;
17510;SDS011;8873;48.818;9.422;2022-07-30T08:06:57;8.07;;;5.10;;
17510;SDS011;8873;48.818;9.422;2022-07-30T08:09:28;6.40;;;4.53;;
17510;SDS011;8873;48.818;9.422;2022-07-30T08:12:10;7.22;;;4.47;;
17510;SDS011;8873;48.818;9.422;2022-07-30T08:14:53;9.93;;;4.95;;
17510;SDS011;8873;48.818;9.422;2022-07-30T08:17:24;9.40;;;4.22;;
17510;SDS011;8873;48.818;9.422;2022-07-30T08:20:09;10.02;;;5.30;;
17510;SDS011;8873;48.818;9.422;2022-07-30T08:23:11;7.47;;;4.50;;
17510;SDS011;8873;48.818;9.422;2022-07-30T08:39:42;8.05;;;4.68;;
17510;SDS011;8873;48.818;9.422;2022-07-30T08:42:21;7.10;;;4.15;;
17510;SDS011;8873;48.818;9.422;2022-07-30T08:44:55;5.78;;;3.95;;
17510;SDS011;8873;48.818;9.422;2022-07-30T08:47:27;9.13;;;4.18;;
17510;SDS011;8873;48.818;9.422;2022-07-30T08:50:12;9.02;;;4.45;;
17510;SDS011;8873;48.818;9.422;2022-07-30T08:52:49;7.45;;;4.15;;
17510;SDS011;8873;48.818;9.422;2022-07-30T08:55:25;4.57;;;4.00;;
17510;SDS011;8873;48.818;9.422;2022-07-30T08:57:52;5.78;;;4.28;;
17510;SDS011;8873;48.818;9.422;2022-07-30T09:00:24;9.60;;;4.32;;
17510;SDS011;8873;48.818;9.422;2022-07-30T09:02:57;4.70;;;4.03;;
17510;SDS011;8873;48.818;9.422;2022-07-30T09:05:28;15.30;;;3.83;;
17510;SDS011;8873;48.818;9.422;2022-07-30T09:08:00;6.82;;;4.32;;
17510;SDS011;8873;48.818;9.422;2022-07-30T09:10:36;8.00;;;4.05;;
17510;SDS011;8873;48.818;9.422;2022-07-30T09:13:23;7.65;;;4.43;;
17510;SDS011;8873;48.818;9.422;2022-07-30T09:15:52;7.22;;;3.70;;
17510;SDS011;8873;48.818;9.422;2022-07-30T09:18:41;7.97;;;4.20;;
17510;SDS011;8873;48.818;9.422;2022-07-30T09:21:17;4.45;;;3.63;;
17510;SDS011;8873;48.818;9.422;2022-07-30T09:23:57;5.22;;;3.30;;
17510;SDS011;8873;48.818;9.422;2022-07-30T09:29:29;7.18;;;3.70;;
17510;SDS011;8873;48.818;9.422;2022-07-30T09:31:58;8.43;;;3.65;;
17510;SDS011;8873;48.818;9.422;2022-07-30T09:34:27;5.72;;;3.10;;
17510;SDS011;8873;48.818;9.422;2022-07-30T09:36:55;6.13;;;2.88;;
17510;SDS011;8873;48.818;9.422;2022-07-30T09:39:29;5.25;;;3.58;;
17510;SDS011;8873;48.818;9.422;2022-07-30T09:41:57;6.63;;;3.45;;
17510;SDS011;8873;48.818;9.422;2022-07-30T09:44:26;5.07;;;3.47;;
17510;SDS011;8873;48.818;9.422;2022-07-30T09:46:56;3.42;;;3.08;;
17510;SDS011;8873;48.818;9.422;2022-07-30T09:49:25;5.22;;;3.03;;
17510;SDS011;8873;48.818;9.422;2022-07-30T09:51:53;7.03;;;3.30;;
17510;SDS011;8873;48.818;9.422;2022-07-30T09:57:17;3.80;;;3.28;;
17510;SDS011;8873;48.818;9.422;2022-07-30T09:59:53;4.90;;;3.00;;
17510;SDS011;8873;48.818;9.422;2022-07-30T10:02:28;5.40;;;3.10;;
17510;SDS011;8873;48.818;9.422;2022-07-30T10:05:07;2.67;;;2.50;;
17510;SDS011;8873;48.818;9.422;2022-07-30T10:07:40;4.50;;;3.05;;
17510;SDS011;8873;48.818;9.422;2022-07-30T10:10:13;4.20;;;2.88;;
17510;SDS011;8873;48.818;9.422;2022-07-30T10:12:42;3.25;;;2.95;;
17510;SDS011;8873;48.818;9.422;2022-07-30T10:15:11;4.40;;;3.08;;
17510;SDS011;8873;48.818;9.422;2022-07-30T10:17:41;6.65;;;2.60;;
17510;SDS011;8873;48.818;9.422;2022-07-30T10:20:09;3.50;;;2.38;;
17510;SDS011;8873;48.818;9.422;2022-07-30T10:22:38;4.95;;;2.53;;
17510;SDS011;8873;48.818;9.422;2022-07-30T10:25:06;3.47;;;3.15;;
17510;SDS011;8873;48.818;9.422;2022-07-30T10:27:41;3.50;;;3.20;;
17510;SDS011;8873;48.818;9.422;2022-07-30T10:30:10;4.85;;;2.80;;
17510;SDS011;8873;48.818;9.422;2022-07-30T10:32:39;3.35;;;2.75;;
17510;SDS011;8873;48.818;9.422;2022-07-30T10:35:09;5.32;;;2.90;;
17510;SDS011;8873;48.818;9.422;2022-07-30T10:37:57;3.78;;;2.97;;
17510;SDS011;8873;48.818;9.422;2022-07-30T10:40:27;3.95;;;3.50;;
17510;SDS011;8873;48.818;9.422;2022-07-30T10:43:05;5.55;;;3.30;;
17510;SDS011;8873;48.818;9.422;2022-07-30T10:45:43;2.80;;;2.60;;
17510;SDS011;8873;48.818;9.422;2022-07-30T11:11:44;4.68;;;2.50;;
17510;SDS011;8873;48.818;9.422;2022-07-30T11:21:32;3.75;;;2.72;;
17510;SDS011;8873;48.818;9.422;2022-07-30T11:30:41;6.32;;;2.60;;
17510;SDS011;8873;48.818;9.422;2022-07-30T11:33:28;4.10;;;2.45;;
17510;SDS011;8873;48.818;9.422;2022-07-30T11:36:09;4.40;;;2.60;;
17510;SDS011;8873;48.818;9.422;2022-07-30T11:38:56;4.88;;;2.38;;
17510;SDS011;8873;48.818;9.422;2022-07-30T11:41:40;2.40;;;2.15;;
17510;SDS011;8873;48.818;9.422;2022-07-30T11:45:02;2.47;;;2.15;;
17510;SDS011;8873;48.818;9.422;2022-07-30T11:47:50;2.90;;;1.90;;
17510;SDS011;8873;48.818;9.422;2022-07-30T11:50:31;5.88;;;2.30;;
17510;SDS011;8873;48.818;9.422;2022-07-30T11:53:14;2.55;;;2.30;;
17510;SDS011;8873;48.818;9.422;2022-07-30T11:59:10;2.55;;;2.35;;
17510;SDS011;8873;48.818;9.422;2022-07-30T12:01:54;6.00;;;2.22;;
17510;SDS011;8873;48.818;9.422;2022-07-30T12:10:54;5.25;;;2.60;;
17510;SDS011;8873;48.818;9.422;2022-07-30T12:13:41;3.22;;;2.80;;
17510;SDS011;8873;48.818;9.422;2022-07-30T12:16:37;4.78;;;2.17;;
17510;SDS011;8873;48.818;9.422;2022-07-30T12:19:14;2.22;;;1.90;;
17510;SDS011;8873;48.818;9.422;2022-07-30T12:22:06;2.00;;;1.90;;
17510;SDS011;8873;48.818;9.422;2022-07-30T12:25:14;3.47;;;2.30;;
17510;SDS011;8873;48.818;9.422;2022-07-30T12:28:07;2.90;;;2.00;;
17510;SDS011;8873;48.818;9.422;2022-07-30T12:35:41;2.38;;;2.00;;
17510;SDS011;8873;48.818;9.422;2022-07-30T12:36:38;2.30;;;2.10;;
17510;SDS011;8873;48.818;9.422;2022-07-30T12:39:16;3.47;;;1.95;;
17510;SDS011;8873;48.818;9.422;2022-07-30T12:42:17;2.20;;;2.00;;
17510;SDS011;8873;48.818;9.422;2022-07-30T12:50:42;2.42;;;2.20;;
17510;SDS011;8873;48.818;9.422;2022-07-30T12:53:13;2.60;;;2.22;;
17510;SDS011;8873;48.818;9.422;2022-07-30T13:05:00;2.50;;;2.05;;
17510;SDS011;8873;48.818;9.422;2022-07-30T13:10:34;5.07;;;2.20;;
17510;SDS011;8873;48.818;9.422;2022-07-30T13:13:18;2.28;;;2.15;;
17510;SDS011;8873;48.818;9.422;2022-07-30T13:16:20;3.40;;;2.00;;
17510;SDS011;8873;48.818;9.422;2022-07-30T13:19:08;4.03;;;2.17;;
17510;SDS011;8873;48.818;9.422;2022-07-30T13:21:51;2.05;;;1.95;;
17510;SDS011;8873;48.818;9.422;2022-07-30T13:24:37;2.35;;;2.17;;
17510;SDS011;8873;48.818;9.422;2022-07-30T13:27:14;3.20;;;2.00;;
17510;SDS011;8873;48.818;9.422;2022-07-30T13:30:10;2.45;;;1.92;;
17510;SDS011;8873;48.818;9.422;2022-07-30T13:32:42;2.90;;;1.90;;
17510;SDS011;8873;48.818;9.422;2022-07-30T13:35:18;6.90;;;2.25;;
17510;SDS011;8873;48.818;9.422;2022-07-30T13:37:56;3.80;;;2.00;;
17510;SDS011;8873;48.818;9.422;2022-07-30T13:40:29;3.20;;;2.10;;
17510;SDS011;8873;48.818;9.422;2022-07-30T13:42:58;4.10;;;2.05;;
17510;SDS011;8873;48.818;9.422;2022-07-30T13:45:26;2.13;;;2.03;;
17510;SDS011;8873;48.818;9.422;2022-07-30T13:47:54;5.05;;;2.35;;
17510;SDS011;8873;48.818;9.422;2022-07-30T13:50:51;5.43;;;2.53;;
17510;SDS011;8873;48.818;9.422;2022-07-30T13:53:37;2.08;;;1.92;;
17510;SDS011;8873;48.818;9.422;2022-07-30T13:56:07;3.10;;;2.33;;
17510;SDS011;8873;48.818;9.422;2022-07-30T13:58:43;2.47;;;2.03;;
17510;SDS011;8873;48.818;9.422;2022-07-30T14:01:31;2.35;;;2.15;;
17510;SDS011;8873;48.818;9.422;2022-07-30T14:04:22;5.70;;;2.38;;
17510;SDS011;8873;48.818;9.422;2022-07-30T14:07:10;5.07;;;2.25;;
17510;SDS011;8873;48.818;9.422;2022-07-30T14:09:57;6.25;;;2.28;;
17510;SDS011;8873;48.818;9.422;2022-07-30T14:12:53;3.47;;;2.22;;
17510;SDS011;8873;48.818;9.422;2022-07-30T14:15:35;3.10;;;2.13;;
17510;SDS011;8873;48.818;9.422;2022-07-30T14:20:56;3.83;;;1.92;;
17510;SDS011;8873;48.818;9.422;2022-07-30T14:23:24;2.30;;;2.20;;
17510;SDS011;8873;48.818;9.422;2022-07-30T14:25:58;2.30;;;2.10;;
17510;SDS011;8873;48.818;9.422;2022-07-30T14:28:28;2.10;;;2.00;;
17510;SDS011;8873;48.818;9.422;2022-07-30T14:31:00;2.38;;;2.17;;
17510;SDS011;8873;48.818;9.422;2022-07-30T14:33:31;2.10;;;2.00;;
17510;SDS011;8873;48.818;9.422;2022-07-30T14:36:02;1.90;;;1.70;;
17510;SDS011;8873;48.818;9.422;2022-07-30T14:38:30;2.20;;;2.00;;
17510;SDS011;8873;48.818;9.422;2022-07-30T14:41:00;3.70;;;2.03;;
17510;SDS011;8873;48.818;9.422;2022-07-30T14:43:32;2.17;;;1.95;;
17510;SDS011;8873;48.818;9.422;2022-07-30T14:46:00;2.08;;;1.98;;
17510;SDS011;8873;48.818;9.422;2022-07-30T14:48:28;3.22;;;2.10;;
17510;SDS011;8873;48.818;9.422;2022-07-30T14:50:55;3.90;;;2.05;;
17510;SDS011;8873;48.818;9.422;2022-07-30T14:53:44;2.78;;;1.88;;
17510;SDS011;8873;48.818;9.422;2022-07-30T14:56:21;4.63;;;2.00;;
17510;SDS011;8873;48.818;9.422;2022-07-30T14:58:50;7.28;;;2.88;;
17510;SDS011;8873;48.818;9.422;2022-07-30T15:01:18;3.13;;;2.13;;
17510;SDS011;8873;48.818;9.422;2022-07-30T15:03:52;2.40;;;2.20;;
17510;SDS011;8873;48.818;9.422;2022-07-30T15:06:19;2.10;;;1.90;;
17510;SDS011;8873;48.818;9.422;2022-07-30T15:08:49;2.67;;;2.10;;
17510;SDS011;8873;48.818;9.422;2022-07-30T15:11:26;4.50;;;1.95;;
17510;SDS011;8873;48.818;9.422;2022-07-30T15:14:04;4.32;;;2.20;;
17510;SDS011;8873;48.818;9.422;2022-07-30T15:16:36;2.00;;;1.90;;
17510;SDS011;8873;48.818;9.422;2022-07-30T15:19:06;3.13;;;2.00;;
17510;SDS011;8873;48.818;9.422;2022-07-30T15:21:37;2.05;;;1.95;;
17510;SDS011;8873;48.818;9.422;2022-07-30T15:24:05;4.93;;;2.20;;
17510;SDS011;8873;48.818;9.422;2022-07-30T15:26:42;5.03;;;2.03;;
17510;SDS011;8873;48.818;9.422;2022-07-30T15:29:10;3.30;;;2.15;;
17510;SDS011;8873;48.818;9.422;2022-07-30T15:31:41;2.17;;;1.92;;
17510;SDS011;8873;48.818;9.422;2022-07-30T15:34:09;4.35;;;1.98;;
17510;SDS011;8873;48.818;9.422;2022-07-30T15:36:40;3.83;;;2.20;;
17510;SDS011;8873;48.818;9.422;2022-07-30T15:39:10;3.17;;;1.88;;
17510;SDS011;8873;48.818;9.422;2022-07-30T15:41:43;3.10;;;1.90;;
17510;SDS011;8873;48.818;9.422;2022-07-30T15:44:12;2.50;;;2.30;;
17510;SDS011;8873;48.818;9.422;2022-07-30T15:46:45;2.55;;;2.28;;
17510;SDS011;8873;48.818;9.422;2022-07-30T15:49:13;1.83;;;1.73;;
17510;SDS011;8873;48.818;9.422;2022-07-30T15:51:43;4.22;;;1.80;;
17510;SDS011;8873;48.818;9.422;2022-07-30T15:54:14;2.00;;;1.85;;
17510;SDS011;8873;48.818;9.422;2022-07-30T15:56:50;2.15;;;1.95;;
17510;SDS011;8873;48.818;9.422;2022-07-30T15:59:26;4.90;;;1.90;;
17510;SDS011;8873;48.818;9.422;2022-07-30T16:01:56;3.67;;;2.00;;
17510;SDS011;8873;48.818;9.422;2022-07-30T16:04:29;3.05;;;1.90;;
17510;SDS011;8873;48.818;9.422;2022-07-30T16:06:58;2.40;;;2.03;;
17510;SDS011;8873;48.818;9.422;2022-07-30T16:09:26;4.05;;;1.90;;
17510;SDS011;8873;48.818;9.422;2022-07-30T16:11:56;4.63;;;1.90;;
17510;SDS011;8873;48.818;9.422;2022-07-30T16:14:32;2.58;;;1.65;;
17510;SDS011;8873;48.818;9.422;2022-07-30T16:17:02;2.17;;;1.98;;
17510;SDS011;8873;48.818;9.422;2022-07-30T16:19:39;6.30;;;2.20;;
17510;SDS011;8873;48.818;9.422;2022-07-30T16:22:10;2.58;;;2.30;;
17510;SDS011;8873;48.818;9.422;2022-07-30T16:24:49;4.15;;;2.60;;
17510;SDS011;8873;48.818;9.422;2022-07-30T16:27:18;2.30;;;2.10;;
17510;SDS011;8873;48.818;9.422;2022-07-30T16:29:46;3.92;;;2.00;;
17510;SDS011;8873;48.818;9.422;2022-07-30T16:32:14;2.03;;;1.92;;
17510;SDS011;8873;48.818;9.422;2022-07-30T16:34:43;5.50;;;2.22;;
17510;SDS011;8873;48.818;9.422;2022-07-30T16:37:11;3.15;;;2.00;;
17510;SDS011;8873;48.818;9.422;2022-07-30T16:39:42;4.85;;;2.92;;
17510;SDS011;8873;48.818;9.422;2022-07-30T16:42:10;2.08;;;1.98;;
17510;SDS011;8873;48.818;9.422;2022-07-30T16:44:41;2.10;;;2.00;;
17510;SDS011;8873;48.818;9.422;2022-07-30T16:47:13;2.65;;;2.00;;
17510;SDS011;8873;48.818;9.422;2022-07-30T16:49:42;4.07;;;2.22;;
17510;SDS011;8873;48.818;9.422;2022-07-30T16:52:22;1.98;;;1.88;;
17510;SDS011;8873;48.818;9.422;2022-07-30T16:54:55;2.78;;;1.80;;
17510;SDS011;8873;48.818;9.422;2022-07-30T16:57:29;2.42;;;2.10;;
17510;SDS011;8873;48.818;9.422;2022-07-30T17:02:59;2.13;;;2.03;;
17510;SDS011;8873;48.818;9.422;2022-07-30T17:05:45;2.53;;;2.35;;
17510;SDS011;8873;48.818;9.422;2022-07-30T17:08:19;3.70;;;2.47;;
17510;SDS011;8873;48.818;9.422;2022-07-30T17:11:00;2.38;;;2.13;;
17510;SDS011;8873;48.818;9.422;2022-07-30T17:13:56;2.30;;;2.10;;
17510;SDS011;8873;48.818;9.422;2022-07-30T17:16:38;2.25;;;2.10;;
17510;SDS011;8873;48.818;9.422;2022-07-30T17:22:06;2.38;;;2.17;;
17510;SDS011;8873;48.818;9.422;2022-07-30T17:24:48;3.13;;;2.53;;
17510;SDS011;8873;48.818;9.422;2022-07-30T17:27:36;2.38;;;2.17;;
17510;SDS011;8873;48.818;9.422;2022-07-30T17:30:12;4.28;;;2.25;;
17510;SDS011;8873;48.818;9.422;2022-07-30T17:32:41;2.42;;;2.17;;
17510;SDS011;8873;48.818;9.422;2022-07-30T17:35:14;3.80;;;2.25;;
17510;SDS011;8873;48.818;9.422;2022-07-30T17:40:58;2.35;;;2.13;;
17510;SDS011;8873;48.818;9.422;2022-07-30T17:43:56;2.30;;;2.10;;
17510;SDS011;8873;48.818;9.422;2022-07-30T17:46:47;2.00;;;1.90;;
17510;SDS011;8873;48.818;9.422;2022-07-30T17:49:30;2.60;;;2.33;;